Time;durP1;ratioP1;P1;durP2;ratioP2;P2;SDS_P1;SDS_P2;PMS_P1;PMS_P2;Temp;Humidity;BMP_temperature;BMP_pressure;BME280_temperature;BME280_humidity;BME280_pressure;Samples;Min_cycle;Max_cycle;Signal;HPM_P1;HPM_P2
2021/04/24 00:00:59;;;;;;;15.33;6.67;;;10.70;54.50;;;;;;4998288;28;20282;-71
2021/04/24 00:03:25;;;;;;;8.70;6.40;;;10.70;54.60;;;;;;5002927;28;20523;-71
2021/04/24 00:05:51;;;;;;;9.00;6.33;;;10.70;55.40;;;;;;4994615;28;20837;-70
2021/04/24 00:08:17;;;;;;;7.90;6.53;;;10.70;54.80;;;;;;4993301;28;20256;-72
2021/04/24 00:10:46;;;;;;;8.93;6.37;;;10.70;54.70;;;;;;5007094;28;20463;-72
2021/04/24 00:13:13;;;;;;;8.50;6.90;;;10.70;54.90;;;;;;4999153;28;20193;-70
2021/04/24 00:15:40;;;;;;;7.10;6.07;;;10.70;54.90;;;;;;5004253;28;20420;-70
2021/04/24 00:18:06;;;;;;;9.00;6.97;;;10.60;54.90;;;;;;5005596;28;20467;-72
2021/04/24 00:20:33;;;;;;;7.60;6.50;;;10.50;55.10;;;;;;5003115;28;20428;-71
2021/04/24 00:22:59;;;;;;;8.60;6.23;;;10.40;55.20;;;;;;5002976;28;20431;-70
2021/04/24 00:25:24;;;;;;;11.43;7.40;;;10.40;55.60;;;;;;5006494;28;21157;-71
2021/04/24 00:27:50;;;;;;;9.97;8.00;;;10.30;56.40;;;;;;4995595;28;20209;-72
2021/04/24 00:30:18;;;;;;;12.50;6.60;;;10.30;56.20;;;;;;5007316;28;20186;-71
2021/04/24 00:32:44;;;;;;;7.87;7.07;;;10.20;56.50;;;;;;5004966;28;20436;-72
2021/04/24 00:35:11;;;;;;;8.83;6.13;;;10.20;56.70;;;;;;5017910;28;20452;-70
2021/04/24 00:37:37;;;;;;;7.50;6.70;;;10.20;57.00;;;;;;5004025;28;20480;-70
2021/04/24 00:40:04;;;;;;;12.13;6.80;;;10.20;57.10;;;;;;5005582;28;20440;-71
2021/04/24 00:42:30;;;;;;;8.80;7.20;;;10.20;57.10;;;;;;5005049;28;20489;-70
2021/04/24 00:44:56;;;;;;;15.23;7.40;;;10.20;57.50;;;;;;5012039;28;20444;-70
2021/04/24 00:47:22;;;;;;;8.30;6.60;;;10.10;57.90;;;;;;5011191;28;20213;-71
2021/04/24 00:49:48;;;;;;;7.60;6.53;;;10.10;58.60;;;;;;5005272;28;20192;-72
2021/04/24 00:52:15;;;;;;;7.17;6.07;;;10.10;58.90;;;;;;4999729;28;20962;-71
2021/04/24 00:54:40;;;;;;;6.63;5.70;;;10.10;59.20;;;;;;4998034;28;20193;-70
2021/04/24 00:57:07;;;;;;;8.93;5.87;;;10.10;59.30;;;;;;5008175;28;20436;-70
2021/04/24 00:59:36;;;;;;;8.97;6.87;;;10.00;59.50;;;;;;5006466;28;20261;-69
2021/04/24 01:02:02;;;;;;;7.70;6.17;;;9.90;60.80;;;;;;5005729;28;20505;-71
2021/04/24 01:04:28;;;;;;;15.80;7.93;;;9.90;61.70;;;;;;5006237;28;20783;-69
2021/04/24 01:06:53;;;;;;;7.50;6.50;;;9.80;62.10;;;;;;5003801;28;20482;-71
2021/04/24 01:09:19;;;;;;;12.50;7.27;;;9.80;62.60;;;;;;5010108;28;20220;-70
2021/04/24 01:11:45;;;;;;;13.73;6.80;;;9.80;62.70;;;;;;5019061;28;20188;-69
2021/04/24 01:14:11;;;;;;;8.47;6.40;;;9.80;63.30;;;;;;5010685;28;20869;-69
2021/04/24 01:16:37;;;;;;;7.27;6.57;;;9.80;63.30;;;;;;5014879;28;20188;-71
2021/04/24 01:19:03;;;;;;;9.70;6.40;;;9.80;63.40;;;;;;5017177;28;20501;-72
2021/04/24 01:21:29;;;;;;;7.97;6.67;;;9.70;63.90;;;;;;5006237;28;20185;-69
2021/04/24 01:23:56;;;;;;;7.33;6.40;;;9.70;63.80;;;;;;5013436;28;20453;-72
2021/04/24 01:26:22;;;;;;;8.97;5.80;;;9.60;64.90;;;;;;5008456;28;20451;-69
2021/04/24 01:28:47;;;;;;;7.37;6.13;;;9.60;64.60;;;;;;5010710;28;20543;-71
2021/04/24 01:31:15;;;;;;;10.20;7.13;;;9.60;65.70;;;;;;5019160;28;20185;-71
2021/04/24 01:33:41;;;;;;;7.13;6.07;;;9.50;67.20;;;;;;5015159;28;20181;-71
2021/04/24 01:36:06;;;;;;;10.87;7.33;;;9.40;68.40;;;;;;5012632;28;20997;-70
2021/04/24 01:38:32;;;;;;;15.17;7.27;;;9.40;69.10;;;;;;5010182;28;20330;-70
2021/04/24 01:40:59;;;;;;;7.00;6.30;;;9.30;70.00;;;;;;5015543;28;20185;-68
2021/04/24 01:43:24;;;;;;;6.57;5.93;;;9.20;70.80;;;;;;5010662;28;21793;-69
2021/04/24 01:45:50;;;;;;;8.23;6.70;;;9.30;72.10;;;;;;5006068;28;20451;-70
2021/04/24 01:48:16;;;;;;;13.20;6.53;;;9.20;73.40;;;;;;5015277;28;20208;-69
2021/04/24 01:50:43;;;;;;;11.13;7.20;;;9.20;74.20;;;;;;5013494;28;20181;-68
2021/04/24 01:53:11;;;;;;;7.53;6.20;;;9.10;75.50;;;;;;5014834;28;20530;-69
2021/04/24 01:55:39;;;;;;;11.20;7.60;;;9.00;75.60;;;;;;5009199;28;20440;-69
2021/04/24 01:58:08;;;;;;;10.57;6.90;;;9.00;76.80;;;;;;5016513;28;20867;-69
2021/04/24 02:00:55;;;;;;;7.60;6.80;;;9.00;77.30;;;;;;5017658;28;20526;-69
2021/04/24 02:03:20;;;;;;;9.67;7.40;;;9.00;78.70;;;;;;5013212;28;20451;-69
2021/04/24 02:05:47;;;;;;;6.73;5.83;;;9.00;79.10;;;;;;5016413;28;20439;-67
2021/04/24 02:08:30;;;;;;;8.93;7.00;;;9.00;79.40;;;;;;5014161;28;20214;-68
2021/04/24 02:10:56;;;;;;;10.03;6.50;;;9.00;80.10;;;;;;5013337;28;20432;-68
2021/04/24 02:13:26;;;;;;;6.80;6.10;;;9.00;80.40;;;;;;5014823;28;20521;-69
2021/04/24 02:15:52;;;;;;;8.77;6.57;;;8.90;80.50;;;;;;5015631;28;20424;-70
2021/04/24 02:18:18;;;;;;;9.47;6.67;;;8.90;81.00;;;;;;5013088;28;20478;-67
2021/04/24 02:20:44;;;;;;;6.93;6.23;;;8.90;81.70;;;;;;5013370;28;20811;-68
2021/04/24 02:23:13;;;;;;;7.60;6.77;;;8.90;82.20;;;;;;5012388;28;21195;-69
2021/04/24 02:25:39;;;;;;;10.00;7.20;;;8.80;82.60;;;;;;5012715;28;20436;-69
2021/04/24 02:28:05;;;;;;;11.33;6.60;;;8.70;83.30;;;;;;5012852;28;20744;-67
2021/04/24 02:30:31;;;;;;;7.73;6.93;;;8.70;84.00;;;;;;5015729;28;20466;-68
2021/04/24 02:32:56;;;;;;;8.13;6.80;;;8.60;84.90;;;;;;5013491;28;20518;-68
2021/04/24 02:35:32;;;;;;;8.20;7.00;;;8.70;86.40;;;;;;5012622;28;20196;-68
2021/04/24 02:37:58;;;;;;;7.37;6.57;;;8.60;85.20;;;;;;5014979;28;20290;-70
2021/04/24 02:40:24;;;;;;;7.13;6.43;;;8.60;87.10;;;;;;5015551;28;20494;-69
2021/04/24 02:42:50;;;;;;;10.60;7.70;;;8.60;87.80;;;;;;5013783;28;20199;-69
2021/04/24 02:45:16;;;;;;;10.07;7.30;;;8.60;87.60;;;;;;5015373;28;20443;-69
2021/04/24 02:47:43;;;;;;;10.00;6.23;;;8.60;87.90;;;;;;5013158;28;20212;-69
2021/04/24 02:50:13;;;;;;;10.53;6.03;;;8.60;88.80;;;;;;5008049;28;20448;-71
2021/04/24 02:52:39;;;;;;;11.07;6.60;;;8.60;89.60;;;;;;5011183;28;20492;-67
2021/04/24 02:55:05;;;;;;;8.33;6.57;;;8.60;90.40;;;;;;5015036;28;20559;-68
2021/04/24 02:57:31;;;;;;;6.90;6.30;;;8.60;90.00;;;;;;5008141;28;20937;-70
2021/04/24 02:59:57;;;;;;;7.37;6.67;;;8.60;90.40;;;;;;5013115;28;20434;-69
2021/04/24 03:02:23;;;;;;;6.63;6.00;;;8.60;90.70;;;;;;5013646;28;21037;-70
2021/04/24 03:04:48;;;;;;;7.70;6.70;;;8.60;90.40;;;;;;5007879;28;20573;-69
2021/04/24 03:07:14;;;;;;;8.17;6.37;;;8.60;90.50;;;;;;5011996;28;20196;-69
2021/04/24 03:09:39;;;;;;;9.43;5.87;;;8.50;90.80;;;;;;5015028;28;20194;-69
2021/04/24 03:12:07;;;;;;;7.40;6.60;;;8.50;91.60;;;;;;5010220;28;20185;-69
2021/04/24 03:14:33;;;;;;;8.50;6.23;;;8.50;92.10;;;;;;5011307;28;20621;-68
2021/04/24 03:16:59;;;;;;;7.73;6.80;;;8.50;92.60;;;;;;5012871;28;20823;-70
2021/04/24 03:19:24;;;;;;;7.10;6.30;;;8.50;92.70;;;;;;5013681;28;20442;-68
2021/04/24 03:21:50;;;;;;;7.43;6.20;;;8.40;93.50;;;;;;5011692;28;20232;-69
2021/04/24 03:24:16;;;;;;;9.40;6.47;;;8.40;93.60;;;;;;5014971;28;20188;-69
2021/04/24 03:26:42;;;;;;;7.17;6.43;;;8.40;94.00;;;;;;5012077;28;20189;-70
2021/04/24 03:29:07;;;;;;;8.93;7.00;;;8.40;94.20;;;;;;5009434;28;20514;-69
2021/04/24 03:31:33;;;;;;;9.50;6.60;;;8.40;94.50;;;;;;5012236;28;20195;-69
2021/04/24 03:33:59;;;;;;;9.13;6.10;;;8.30;94.50;;;;;;5012554;28;20188;-69
2021/04/24 03:36:25;;;;;;;9.50;6.37;;;8.20;94.90;;;;;;5012260;28;20259;-68
2021/04/24 03:38:50;;;;;;;7.90;6.50;;;8.10;95.50;;;;;;5014837;28;20457;-69
2021/04/24 03:41:16;;;;;;;7.63;6.37;;;8.10;95.90;;;;;;5014664;28;20184;-70
2021/04/24 03:43:42;;;;;;;14.60;5.93;;;8.00;96.80;;;;;;5011324;28;20263;-68
2021/04/24 03:46:08;;;;;;;9.80;7.30;;;7.90;97.60;;;;;;5013800;28;20196;-70
2021/04/24 03:48:34;;;;;;;10.43;6.57;;;7.90;98.20;;;;;;5014165;28;20217;-69
2021/04/24 03:51:00;;;;;;;7.53;6.50;;;7.80;98.00;;;;;;5015076;28;20427;-68
2021/04/24 03:53:26;;;;;;;7.43;6.60;;;7.70;99.00;;;;;;5008297;28;20270;-68
2021/04/24 03:55:52;;;;;;;10.47;5.70;;;7.70;99.90;;;;;;5011260;28;20473;-68
2021/04/24 03:58:18;;;;;;;10.87;6.10;;;7.70;99.90;;;;;;5012776;28;20496;-69
2021/04/24 04:00:44;;;;;;;7.80;7.00;;;7.70;99.90;;;;;;5011823;28;20188;-72
2021/04/24 04:03:10;;;;;;;7.83;6.07;;;7.60;99.90;;;;;;5014145;28;20533;-67
2021/04/24 04:05:44;;;;;;;7.50;6.17;;;7.60;99.90;;;;;;5007108;28;20573;-69
2021/04/24 04:08:12;;;;;;;10.13;5.97;;;7.60;99.90;;;;;;5013655;28;20255;-68
2021/04/24 04:10:40;;;;;;;8.87;6.73;;;7.60;99.90;;;;;;5012535;28;20611;-71
2021/04/24 04:13:06;;;;;;;7.67;5.40;;;7.60;99.90;;;;;;5010966;28;20450;-68
2021/04/24 04:15:33;;;;;;;15.80;6.10;;;7.60;99.90;;;;;;5013210;28;20531;-68
2021/04/24 04:18:20;;;;;;;5.67;5.13;;;7.60;99.90;;;;;;5011214;28;20459;-70
2021/04/24 04:20:54;;;;;;;6.00;5.33;;;7.60;99.90;;;;;;5009803;28;20446;-69
2021/04/24 04:23:20;;;;;;;5.97;5.37;;;7.60;99.90;;;;;;5008720;28;20446;-68
2021/04/24 04:25:47;;;;;;;6.80;5.23;;;7.60;99.90;;;;;;5012754;28;20445;-69
2021/04/24 04:28:13;;;;;;;6.57;5.20;;;7.60;99.90;;;;;;5009242;28;20486;-69
2021/04/24 04:30:39;;;;;;;6.60;4.97;;;7.50;99.90;;;;;;5013217;28;20949;-69
2021/04/24 04:33:06;;;;;;;9.43;6.20;;;7.50;99.80;;;;;;5013021;28;20446;-69
2021/04/24 04:35:33;;;;;;;6.70;5.00;;;7.50;99.90;;;;;;5010537;28;20433;-68
2021/04/24 04:37:59;;;;;;;6.03;5.43;;;7.50;99.90;;;;;;5012062;28;20819;-70
2021/04/24 04:40:25;;;;;;;5.97;5.37;;;7.50;99.90;;;;;;5009786;28;20463;-68
2021/04/24 04:42:51;;;;;;;7.00;5.70;;;7.60;99.90;;;;;;5016618;28;20443;-68
2021/04/24 04:45:18;;;;;;;7.30;5.20;;;7.50;99.90;;;;;;5019271;28;20730;-69
2021/04/24 04:47:44;;;;;;;7.30;6.00;;;7.50;99.90;;;;;;5014240;28;20247;-68
2021/04/24 04:50:13;;;;;;;8.10;5.70;;;7.50;99.90;;;;;;5013565;28;20475;-69
2021/04/24 04:52:40;;;;;;;7.23;5.90;;;7.50;99.90;;;;;;5016145;28;20432;-70
2021/04/24 04:55:07;;;;;;;7.20;5.80;;;7.50;99.90;;;;;;5014974;28;20506;-69
2021/04/24 04:57:33;;;;;;;9.60;6.43;;;7.50;99.90;;;;;;5015133;28;20459;-69
2021/04/24 04:59:58;;;;;;;7.10;5.90;;;7.50;99.90;;;;;;5019248;28;20806;-67
2021/04/24 05:02:24;;;;;;;6.47;5.87;;;7.50;99.90;;;;;;5011303;28;20467;-69
2021/04/24 05:04:50;;;;;;;7.60;6.30;;;7.60;99.90;;;;;;5016052;28;20243;-69
2021/04/24 05:07:18;;;;;;;7.63;6.50;;;7.60;99.90;;;;;;5011164;28;20411;-69
2021/04/24 05:09:44;;;;;;;7.17;5.97;;;7.60;99.90;;;;;;5013842;28;20198;-70
2021/04/24 05:12:09;;;;;;;8.10;6.03;;;7.60;99.90;;;;;;5016386;28;20443;-67
2021/04/24 05:14:36;;;;;;;6.87;6.17;;;7.60;99.90;;;;;;5016250;28;20653;-67
2021/04/24 05:17:03;;;;;;;8.13;5.57;;;7.60;99.90;;;;;;5009409;28;20187;-69
2021/04/24 05:19:29;;;;;;;8.43;6.60;;;7.60;99.90;;;;;;5013135;28;20983;-68
2021/04/24 05:21:54;;;;;;;8.40;6.13;;;7.70;99.90;;;;;;5011109;28;20443;-69
2021/04/24 05:24:20;;;;;;;8.63;6.17;;;7.70;99.90;;;;;;5015242;28;20537;-69
2021/04/24 05:26:46;;;;;;;9.00;6.93;;;7.80;99.90;;;;;;5013473;28;20189;-67
2021/04/24 05:29:11;;;;;;;7.40;6.57;;;7.90;99.90;;;;;;5017674;28;20563;-68
2021/04/24 05:31:37;;;;;;;10.17;7.87;;;8.00;99.90;;;;;;5014046;28;20189;-70
2021/04/24 05:34:03;;;;;;;8.17;7.10;;;8.00;99.90;;;;;;5009104;28;20189;-69
2021/04/24 05:36:29;;;;;;;10.27;7.47;;;8.10;99.90;;;;;;5011905;28;20248;-71
2021/04/24 05:38:55;;;;;;;10.60;7.53;;;8.20;99.90;;;;;;5016516;28;20625;-67
2021/04/24 05:41:22;;;;;;;11.30;7.17;;;8.20;99.90;;;;;;5017643;28;20300;-69
2021/04/24 05:43:55;;;;;;;9.90;6.73;;;8.30;99.90;;;;;;5017692;28;20449;-69
2021/04/24 05:46:22;;;;;;;12.37;6.80;;;8.30;99.90;;;;;;5018490;28;20514;-70
2021/04/24 05:48:48;;;;;;;10.03;7.07;;;8.30;99.90;;;;;;5017792;28;20471;-69
2021/04/24 05:51:15;;;;;;;16.47;7.00;;;8.40;99.90;;;;;;5014896;28;20535;-68
2021/04/24 05:53:42;;;;;;;9.80;8.53;;;8.30;99.90;;;;;;5014233;28;20439;-69
2021/04/24 05:56:08;;;;;;;11.93;8.50;;;8.30;99.90;;;;;;5011272;28;20513;-68
2021/04/24 05:58:34;;;;;;;9.47;8.07;;;8.30;99.90;;;;;;5020157;28;21107;-71
2021/04/24 06:01:00;;;;;;;10.13;7.13;;;8.40;99.90;;;;;;5016969;28;20559;-68
2021/04/24 06:03:25;;;;;;;9.23;7.70;;;8.30;99.90;;;;;;5014699;28;20229;-69
2021/04/24 06:05:51;;;;;;;9.77;7.67;;;8.40;99.90;;;;;;5019634;28;20958;-68
2021/04/24 06:08:16;;;;;;;9.10;7.90;;;8.50;99.90;;;;;;5014312;28;20212;-70
2021/04/24 06:10:42;;;;;;;9.20;7.60;;;8.60;99.90;;;;;;5015251;28;20204;-68
2021/04/24 06:13:08;;;;;;;11.30;8.20;;;8.70;99.90;;;;;;5016547;28;20180;-69
2021/04/24 06:15:34;;;;;;;10.93;7.97;;;8.80;99.90;;;;;;5017451;28;20467;-68
2021/04/24 06:17:59;;;;;;;17.53;8.90;;;8.80;99.90;;;;;;5014686;28;20224;-69
2021/04/24 06:20:25;;;;;;;12.97;8.40;;;8.90;99.90;;;;;;5015053;28;20193;-71
2021/04/24 06:22:50;;;;;;;11.33;7.73;;;9.00;99.90;;;;;;5014881;28;20589;-67
2021/04/24 06:25:18;;;;;;;9.20;7.73;;;9.10;99.90;;;;;;5011030;28;20185;-69
2021/04/24 06:27:44;;;;;;;14.83;8.50;;;9.10;99.90;;;;;;5014024;28;20754;-71
2021/04/24 06:30:12;;;;;;;8.67;6.60;;;9.20;99.90;;;;;;5018951;28;21134;-71
2021/04/24 06:32:38;;;;;;;9.43;7.57;;;9.20;99.90;;;;;;5015565;28;20442;-69
2021/04/24 06:35:06;;;;;;;14.77;7.50;;;9.30;99.90;;;;;;5010717;28;20423;-68
2021/04/24 06:37:32;;;;;;;10.30;7.70;;;9.50;99.90;;;;;;5015252;28;20206;-68
2021/04/24 06:39:58;;;;;;;9.43;7.40;;;9.60;99.90;;;;;;5017845;28;20478;-67
2021/04/24 06:42:24;;;;;;;10.03;7.20;;;9.70;99.90;;;;;;5011392;28;20432;-68
2021/04/24 06:44:50;;;;;;;11.50;8.10;;;9.80;99.90;;;;;;5013371;28;20192;-67
2021/04/24 06:47:15;;;;;;;7.17;6.47;;;9.90;99.90;;;;;;5016263;28;20427;-69
2021/04/24 06:49:41;;;;;;;10.50;7.80;;;10.00;99.40;;;;;;5010739;28;20243;-69
2021/04/24 06:52:07;;;;;;;9.67;7.10;;;10.10;99.10;;;;;;5013167;28;20177;-68
2021/04/24 06:54:35;;;;;;;7.77;6.83;;;10.10;98.90;;;;;;5012093;28;20177;-68
2021/04/24 06:57:01;;;;;;;7.83;7.07;;;10.20;98.90;;;;;;5016048;28;20428;-69
2021/04/24 06:59:26;;;;;;;10.07;7.30;;;10.20;98.30;;;;;;5011881;28;20450;-69
2021/04/24 07:01:52;;;;;;;9.37;7.00;;;10.30;98.30;;;;;;5012419;28;20455;-70
2021/04/24 07:04:19;;;;;;;11.30;7.50;;;10.40;97.90;;;;;;5008401;28;20243;-71
2021/04/24 07:06:45;;;;;;;10.63;7.77;;;10.50;97.70;;;;;;5012361;28;20613;-71
2021/04/24 07:09:11;;;;;;;9.93;6.60;;;10.60;97.50;;;;;;5009566;28;21036;-70
2021/04/24 07:11:37;;;;;;;8.87;7.00;;;10.70;97.20;;;;;;5015806;28;20436;-69
2021/04/24 07:14:04;;;;;;;8.13;6.37;;;10.90;96.90;;;;;;5013299;28;20205;-69
2021/04/24 07:16:29;;;;;;;6.43;5.70;;;10.90;96.40;;;;;;5013659;28;20831;-69
2021/04/24 07:18:55;;;;;;;8.30;6.57;;;11.00;96.00;;;;;;5013725;28;20475;-72
2021/04/24 07:21:21;;;;;;;11.80;6.40;;;11.00;96.10;;;;;;5013197;28;20219;-69
2021/04/24 07:23:47;;;;;;;6.03;5.43;;;11.10;95.90;;;;;;5012686;28;20645;-68
2021/04/24 07:26:13;;;;;;;9.57;7.13;;;11.30;95.60;;;;;;5015239;28;20980;-68
2021/04/24 07:28:39;;;;;;;7.50;6.80;;;11.40;95.20;;;;;;5010166;28;20566;-69
2021/04/24 07:31:05;;;;;;;8.77;6.70;;;11.50;94.70;;;;;;5014479;28;20192;-69
2021/04/24 07:33:31;;;;;;;6.43;5.83;;;11.60;94.40;;;;;;5009991;28;20181;-69
2021/04/24 07:35:57;;;;;;;8.27;6.97;;;11.80;94.30;;;;;;5010929;28;20286;-69
2021/04/24 07:38:22;;;;;;;13.40;7.80;;;11.80;94.00;;;;;;5016743;28;20991;-70
2021/04/24 07:40:50;;;;;;;8.40;6.57;;;12.00;93.70;;;;;;5014671;28;20188;-70
2021/04/24 07:43:16;;;;;;;9.27;6.70;;;12.00;93.50;;;;;;5013131;28;20192;-69
2021/04/24 07:45:42;;;;;;;9.07;7.10;;;12.10;93.10;;;;;;5017896;28;20442;-69
2021/04/24 07:48:08;;;;;;;9.27;6.70;;;12.20;92.60;;;;;;5014250;28;20551;-68
2021/04/24 07:50:35;;;;;;;8.83;6.20;;;12.30;92.30;;;;;;5012230;28;20587;-69
2021/04/24 07:53:00;;;;;;;9.57;6.40;;;12.50;92.20;;;;;;5013328;28;20197;-68
2021/04/24 07:55:27;;;;;;;6.40;5.70;;;12.60;92.00;;;;;;5016845;28;20439;-69
2021/04/24 07:57:53;;;;;;;6.87;6.17;;;12.80;91.80;;;;;;5013877;28;20750;-71
2021/04/24 08:00:19;;;;;;;9.47;7.17;;;12.90;91.50;;;;;;5012780;28;20526;-71
2021/04/24 08:02:45;;;;;;;8.63;7.87;;;13.00;91.50;;;;;;5012660;28;20197;-69
2021/04/24 08:05:11;;;;;;;7.20;6.50;;;13.10;90.60;;;;;;5014712;28;20451;-69
2021/04/24 08:07:37;;;;;;;9.07;6.13;;;13.20;89.60;;;;;;5015646;28;20665;-69
2021/04/24 08:10:04;;;;;;;12.97;6.40;;;13.30;88.20;;;;;;5012499;28;20439;-68
2021/04/24 08:12:29;;;;;;;7.27;6.53;;;13.40;87.30;;;;;;5009321;28;20193;-68
2021/04/24 08:14:56;;;;;;;8.90;6.60;;;13.60;86.90;;;;;;5007562;28;20933;-70
2021/04/24 08:17:22;;;;;;;8.37;7.03;;;13.70;85.80;;;;;;5005487;28;20290;-70
2021/04/24 08:19:48;;;;;;;6.97;6.07;;;13.80;85.10;;;;;;5004069;28;20600;-69
2021/04/24 08:22:13;;;;;;;8.07;6.90;;;14.00;84.20;;;;;;5006058;28;20324;-70
2021/04/24 08:24:39;;;;;;;8.17;5.87;;;14.10;84.20;;;;;;5003701;28;20192;-69
2021/04/24 08:27:05;;;;;;;6.97;6.40;;;14.30;82.60;;;;;;5003515;28;20306;-70
2021/04/24 08:29:31;;;;;;;6.70;6.10;;;14.40;81.10;;;;;;5010395;28;20459;-70
2021/04/24 08:31:58;;;;;;;7.70;6.97;;;14.50;80.80;;;;;;5008520;28;20875;-70
2021/04/24 08:34:25;;;;;;;6.23;5.73;;;14.70;79.70;;;;;;5003116;28;20459;-70
2021/04/24 08:36:51;;;;;;;8.53;6.87;;;14.80;79.00;;;;;;5008018;28;20439;-70
2021/04/24 08:39:17;;;;;;;10.03;7.23;;;14.90;78.00;;;;;;5004985;28;20789;-70
2021/04/24 08:41:43;;;;;;;9.80;6.70;;;15.10;77.10;;;;;;5004455;28;20448;-70
2021/04/24 08:44:14;;;;;;;7.43;6.70;;;15.20;76.20;;;;;;5008521;28;20428;-69
2021/04/24 08:46:40;;;;;;;9.07;8.10;;;15.20;75.60;;;;;;5012586;28;20424;-70
2021/04/24 08:49:06;;;;;;;9.03;7.20;;;15.50;75.40;;;;;;5013349;28;20486;-70
2021/04/24 08:51:32;;;;;;;7.23;6.50;;;15.70;73.60;;;;;;5016009;28;20424;-70
2021/04/24 08:53:59;;;;;;;7.33;6.50;;;15.80;72.60;;;;;;5015177;28;20184;-69
2021/04/24 08:56:26;;;;;;;10.37;7.43;;;15.90;72.30;;;;;;5015170;28;20192;-68
2021/04/24 08:58:53;;;;;;;11.40;8.10;;;16.00;72.00;;;;;;5014446;28;20471;-70
2021/04/24 09:01:20;;;;;;;8.43;7.20;;;16.40;72.40;;;;;;5010643;28;20908;-71
2021/04/24 09:03:47;;;;;;;7.23;6.27;;;16.60;68.90;;;;;;5005210;28;20463;-71
2021/04/24 09:06:12;;;;;;;10.63;6.60;;;16.70;68.30;;;;;;5014417;28;20427;-71
2021/04/24 09:09:01;;;;;;;10.60;7.27;;;16.90;67.70;;;;;;5015286;28;20851;-70
2021/04/24 09:11:27;;;;;;;7.73;6.43;;;17.10;66.20;;;;;;5015053;28;20228;-72
2021/04/24 09:14:05;;;;;;;9.87;7.17;;;17.30;65.20;;;;;;5011385;28;20427;-72
2021/04/24 09:16:32;;;;;;;10.00;7.03;;;17.50;63.90;;;;;;5018301;28;20443;-70
2021/04/24 09:18:58;;;;;;;10.10;7.50;;;17.70;62.50;;;;;;5011803;28;20474;-70
2021/04/24 09:21:30;;;;;;;10.90;6.23;;;17.90;62.10;;;;;;5013119;28;20467;-69
2021/04/24 09:23:56;;;;;;;8.90;6.93;;;17.90;60.40;;;;;;5011819;28;20215;-71
2021/04/24 09:26:27;;;;;;;11.93;8.37;;;18.00;59.20;;;;;;5010328;28;21097;-70
2021/04/24 09:29:04;;;;;;;10.20;7.70;;;18.10;59.60;;;;;;5018150;28;20569;-73
2021/04/24 09:31:32;;;;;;;9.70;7.83;;;18.40;60.40;;;;;;5016176;28;20528;-73
2021/04/24 09:34:00;;;;;;;11.80;7.57;;;18.60;58.40;;;;;;5011658;28;20438;-69
2021/04/24 09:36:35;;;;;;;8.40;7.10;;;18.70;57.30;;;;;;5013582;28;20432;-68
2021/04/24 09:39:06;;;;;;;7.33;6.33;;;19.10;57.30;;;;;;5014546;28;20470;-72
2021/04/24 09:41:40;;;;;;;9.70;7.40;;;19.60;57.10;;;;;;5014726;28;20427;-73
2021/04/24 09:44:14;;;;;;;8.10;7.00;;;20.20;55.00;;;;;;5008014;28;20445;-68
2021/04/24 09:46:45;;;;;;;8.37;7.57;;;21.20;55.20;;;;;;5013624;28;20501;-70
2021/04/24 09:49:15;;;;;;;11.00;7.90;;;21.90;51.90;;;;;;5014458;28;20474;-70
2021/04/24 09:51:51;;;;;;;11.67;7.67;;;22.60;50.40;;;;;;5014749;28;20436;-70
2021/04/24 09:54:19;;;;;;;8.57;7.67;;;23.10;48.10;;;;;;5019459;28;20426;-69
2021/04/24 09:56:55;;;;;;;7.57;6.90;;;23.80;47.10;;;;;;5018900;28;21184;-70
2021/04/24 09:59:21;;;;;;;11.20;8.77;;;24.40;46.30;;;;;;5014573;28;20823;-71
2021/04/24 10:01:47;;;;;;;8.93;7.80;;;24.60;44.50;;;;;;5007466;28;20455;-72
2021/04/24 10:04:13;;;;;;;9.97;7.97;;;25.00;44.60;;;;;;5016503;28;20200;-71
2021/04/24 10:06:42;;;;;;;8.00;7.20;;;25.10;43.20;;;;;;5013731;28;20988;-70
2021/04/24 10:09:22;;;;;;;10.23;7.57;;;25.20;41.90;;;;;;5010333;28;20479;-71
2021/04/24 10:12:00;;;;;;;7.87;7.07;;;25.40;42.10;;;;;;5012912;28;20454;-71
2021/04/24 10:14:30;;;;;;;9.30;8.40;;;25.50;41.20;;;;;;5017128;28;20428;-73
2021/04/24 10:16:57;;;;;;;10.80;8.63;;;25.50;40.40;;;;;;5022450;28;20423;-73
2021/04/24 10:19:25;;;;;;;9.20;8.00;;;25.60;39.30;;;;;;5016977;28;20475;-70
2021/04/24 10:21:51;;;;;;;9.63;8.40;;;26.10;40.00;;;;;;5014062;28;20519;-73
2021/04/24 10:24:16;;;;;;;8.40;7.60;;;26.70;38.30;;;;;;5016853;28;20566;-71
2021/04/24 10:26:44;;;;;;;8.80;7.90;;;26.90;38.20;;;;;;5018848;28;20262;-71
2021/04/24 10:29:10;;;;;;;10.60;8.73;;;27.00;38.00;;;;;;5011773;28;20307;-76
2021/04/24 10:31:37;;;;;;;10.77;9.07;;;26.40;36.60;;;;;;5011961;28;20445;-72
2021/04/24 10:34:05;;;;;;;9.33;7.93;;;25.70;36.70;;;;;;5013678;28;20794;-72
2021/04/24 10:36:32;;;;;;;12.10;7.90;;;25.40;37.30;;;;;;5006622;28;21025;-70
2021/04/24 10:38:59;;;;;;;9.30;8.47;;;24.90;38.30;;;;;;5003261;28;20455;-70
2021/04/24 10:41:26;;;;;;;9.77;7.90;;;24.70;38.90;;;;;;5010953;28;20468;-71
2021/04/24 10:44:25;;;;;;;12.07;8.50;;;24.70;38.60;;;;;;5014416;28;20420;-71
2021/04/24 10:46:56;;;;;;;10.70;8.97;;;24.80;38.70;;;;;;5008945;28;20527;-71
2021/04/24 10:49:25;;;;;;;11.30;10.20;;;25.30;38.30;;;;;;5012306;28;20475;-70
2021/04/24 10:51:54;;;;;;;10.97;10.07;;;26.00;37.40;;;;;;5007244;28;20444;-70
2021/04/24 10:54:20;;;;;;;11.40;10.40;;;26.70;36.60;;;;;;5013584;28;21126;-70
2021/04/24 10:56:45;;;;;;;11.67;10.63;;;28.20;35.30;;;;;;5016486;28;20555;-69
2021/04/24 10:59:22;;;;;;;13.00;10.60;;;29.80;34.00;;;;;;5012146;28;20590;-70
2021/04/24 11:02:06;;;;;;;10.40;9.40;;;30.60;33.00;;;;;;5017134;28;20595;-71
2021/04/24 11:04:43;;;;;;;11.50;10.50;;;32.00;31.70;;;;;;5009061;28;20443;-71
2021/04/24 11:07:27;;;;;;;11.93;10.60;;;32.30;30.30;;;;;;5013200;28;20516;-70
2021/04/24 11:10:11;;;;;;;11.57;10.47;;;33.00;29.30;;;;;;5017699;28;20437;-72
2021/04/24 11:12:45;;;;;;;11.33;10.33;;;33.90;28.40;;;;;;5010062;28;20443;-70
2021/04/24 11:15:14;;;;;;;11.30;10.40;;;35.10;27.90;;;;;;5011062;28;20407;-71
2021/04/24 11:17:40;;;;;;;11.87;10.87;;;35.70;26.70;;;;;;5011217;28;20455;-70
2021/04/24 11:20:11;;;;;;;11.27;10.33;;;36.50;26.10;;;;;;5019961;28;20439;-69
2021/04/24 11:22:38;;;;;;;12.73;11.57;;;37.20;25.10;;;;;;5015654;28;20458;-70
2021/04/24 11:25:30;;;;;;;11.60;10.60;;;37.80;24.30;;;;;;5015919;28;20439;-70
2021/04/24 11:28:07;;;;;;;10.50;9.77;;;39.00;23.60;;;;;;5019033;28;20861;-70
2021/04/24 11:31:01;;;;;;;12.70;11.60;;;40.50;23.40;;;;;;5014510;28;20390;-70
2021/04/24 11:33:40;;;;;;;12.23;11.33;;;41.80;22.60;;;;;;5015740;28;20438;-70
2021/04/24 11:36:26;;;;;;;11.77;10.77;;;42.70;21.90;;;;;;5012053;28;20463;-69
2021/04/24 11:38:55;;;;;;;11.40;10.63;;;43.80;21.20;;;;;;5017976;28;21200;-69
2021/04/24 11:41:31;;;;;;;10.73;9.93;;;43.90;20.50;;;;;;5018886;28;20462;-70
2021/04/24 11:43:58;;;;;;;11.23;10.43;;;43.90;20.20;;;;;;5014664;28;20444;-70
2021/04/24 11:46:34;;;;;;;13.93;10.63;;;43.50;20.10;;;;;;5016008;28;20454;-70
2021/04/24 11:49:12;;;;;;;11.60;10.60;;;44.00;20.30;;;;;;5013789;28;20908;-71
2021/04/24 11:51:42;;;;;;;10.30;9.60;;;45.00;19.60;;;;;;5013081;28;20510;-70
2021/04/24 11:54:14;;;;;;;11.40;10.40;;;44.20;19.20;;;;;;5011585;28;20465;-69
2021/04/24 11:56:45;;;;;;;10.97;10.20;;;42.50;19.50;;;;;;5017553;28;20419;-69
2021/04/24 11:59:11;;;;;;;10.37;9.57;;;40.40;19.70;;;;;;5013739;28;20449;-69
2021/04/24 12:01:37;;;;;;;10.63;9.73;;;39.50;19.60;;;;;;5017037;28;20468;-68
2021/04/24 12:04:03;;;;;;;11.27;10.43;;;39.00;19.90;;;;;;5016852;28;20431;-70
2021/04/24 12:06:32;;;;;;;11.47;10.50;;;38.70;20.60;;;;;;5014603;28;20483;-71
2021/04/24 12:08:59;;;;;;;11.10;10.30;;;38.50;19.40;;;;;;5015149;28;20584;-69
2021/04/24 12:11:25;;;;;;;9.97;9.17;;;38.80;19.80;;;;;;5019061;28;20445;-68
2021/04/24 12:13:52;;;;;;;11.07;9.97;;;39.00;18.90;;;;;;5016110;28;20514;-70
2021/04/24 12:16:18;;;;;;;9.53;8.83;;;38.70;19.00;;;;;;5016759;28;20239;-69
2021/04/24 12:18:44;;;;;;;9.27;8.60;;;38.20;18.60;;;;;;5017622;28;20534;-70
2021/04/24 12:21:10;;;;;;;10.47;9.57;;;38.40;19.30;;;;;;5012551;28;20538;-69
2021/04/24 12:23:36;;;;;;;10.20;9.50;;;38.80;18.90;;;;;;5016167;28;20872;-68
2021/04/24 12:26:01;;;;;;;10.07;9.33;;;39.00;19.30;;;;;;5017909;28;20185;-68
2021/04/24 12:28:28;;;;;;;10.03;9.30;;;38.40;19.10;;;;;;5009643;28;20494;-69
2021/04/24 12:30:54;;;;;;;11.50;10.47;;;36.80;19.80;;;;;;5011163;28;20223;-69
2021/04/24 12:33:22;;;;;;;10.13;9.33;;;35.30;19.90;;;;;;5011984;28;20446;-68
2021/04/24 12:35:57;;;;;;;9.77;9.00;;;34.00;19.60;;;;;;5013817;28;20422;-70
2021/04/24 12:38:28;;;;;;;10.20;9.40;;;33.90;20.40;;;;;;5014373;28;20818;-70
2021/04/24 12:40:59;;;;;;;11.43;9.87;;;34.40;21.00;;;;;;5009888;28;20947;-72
2021/04/24 12:43:36;;;;;;;10.83;9.40;;;34.30;20.90;;;;;;5016932;28;20427;-71
2021/04/24 12:46:05;;;;;;;10.80;9.90;;;33.90;21.00;;;;;;5016816;28;20383;-69
2021/04/24 12:48:44;;;;;;;11.40;10.50;;;33.30;21.80;;;;;;5018148;28;20856;-68